createdAt,value
2019-05-02T00:01:32.082Z,74.43
2019-05-02T00:04:05.757Z,74.41
2019-05-02T00:06:38.002Z,74.39
2019-05-02T00:09:11.190Z,74.05
2019-05-02T00:11:41.458Z,74.04
2019-05-02T00:14:12.187Z,73.57
2019-05-02T00:16:45.100Z,73.00
2019-05-02T00:19:15.369Z,72.88
2019-05-02T00:21:45.680Z,72.80
2019-05-02T00:24:15.818Z,72.45
2019-05-02T00:26:45.986Z,72.52
2019-05-02T00:29:18.902Z,72.47
2019-05-02T00:31:48.868Z,72.31
2019-05-02T00:34:19.061Z,72.35
2019-05-02T00:36:49.165Z,72.42
2019-05-02T00:39:19.425Z,72.39
2019-05-02T00:41:49.551Z,72.47
2019-05-02T00:44:19.665Z,72.29
2019-05-02T00:46:49.861Z,72.47
2019-05-02T00:49:19.989Z,72.58
2019-05-02T00:51:50.164Z,72.09
2019-05-02T00:54:24.353Z,71.11
2019-05-02T00:56:52.137Z,71.03
2019-05-02T00:59:22.263Z,71.32
2019-05-02T01:01:59.952Z,71.08
2019-05-02T01:04:33.174Z,70.65
2019-05-02T01:07:04.307Z,70.56
2019-05-02T01:09:37.536Z,70.44
2019-05-02T01:12:08.413Z,70.17
2019-05-02T01:14:39.443Z,70.01
2019-05-02T01:17:09.773Z,70.43
2019-05-02T01:19:39.989Z,70.12
2019-05-02T01:22:10.557Z,70.21
2019-05-02T01:24:42.027Z,70.25
2019-05-02T01:27:21.911Z,70.61
2019-05-02T01:30:11.103Z,69.91
2019-05-02T01:33:10.106Z,69.98
2019-05-02T01:35:46.336Z,70.23
2019-05-02T01:38:31.645Z,69.69
2019-05-02T01:40:58.455Z,69.87
2019-05-02T01:43:30.382Z,70.14
2019-05-02T01:46:00.505Z,70.13
2019-05-02T01:48:30.571Z,70.32
2019-05-02T01:51:04.651Z,70.31
2019-05-02T01:53:34.428Z,70.25
2019-05-02T01:56:04.874Z,70.26
2019-05-02T01:58:35.081Z,69.66
2019-05-02T02:01:05.625Z,69.37
2019-05-02T02:03:40.573Z,69.68
2019-05-02T02:06:10.065Z,69.37
2019-05-02T02:08:40.182Z,69.27
2019-05-02T02:11:10.325Z,69.28
2019-05-02T02:13:40.443Z,69.24
2019-05-02T02:16:10.543Z,69.18
2019-05-02T02:18:46.446Z,68.82
2019-05-02T02:21:27.697Z,69.18
2019-05-02T02:24:05.483Z,68.62
2019-05-02T02:26:35.630Z,68.89
2019-05-02T02:29:07.811Z,68.67
2019-05-02T02:31:39.779Z,68.73
2019-05-02T02:34:10.601Z,68.79
2019-05-02T02:36:40.714Z,68.88
2019-05-02T02:39:14.000Z,68.51
2019-05-02T02:41:45.364Z,68.30
2019-05-02T02:44:33.859Z,67.87
2019-05-02T02:47:11.943Z,67.78
2019-05-02T02:49:37.647Z,67.67
2019-05-02T02:52:09.580Z,67.70
2019-05-02T02:54:43.365Z,67.91
2019-05-02T02:57:26.013Z,68.29
2019-05-02T02:59:47.363Z,67.91
2019-05-02T03:02:17.480Z,67.13
2019-05-02T03:04:47.775Z,67.28
2019-05-02T03:07:25.490Z,67.44
2019-05-02T03:09:49.720Z,67.62
2019-05-02T03:12:47.832Z,67.76
2019-05-02T03:15:27.727Z,67.59
2019-05-02T03:17:52.567Z,67.87
2019-05-02T03:20:22.809Z,67.75
2019-05-02T03:22:57.585Z,67.82
2019-05-02T03:25:49.215Z,67.49
2019-05-02T03:28:01.347Z,67.70
2019-05-02T03:30:37.177Z,67.67
2019-05-02T03:33:11.334Z,68.08
2019-05-02T03:35:48.177Z,67.98
2019-05-02T03:38:13.098Z,67.79
2019-05-02T03:40:52.187Z,67.75
2019-05-02T03:43:25.518Z,67.98
2019-05-02T03:46:20.433Z,67.73
2019-05-02T03:48:48.596Z,67.93
2019-05-02T03:51:25.064Z,67.56
2019-05-02T03:54:05.634Z,67.41
2019-05-02T03:56:26.736Z,67.70
2019-05-02T03:59:01.494Z,68.54
2019-05-02T04:01:38.662Z,68.37
2019-05-02T04:04:05.619Z,68.43
2019-05-02T04:06:36.274Z,68.70
2019-05-02T04:09:08.197Z,68.68
2019-05-02T04:11:40.732Z,69.24
2019-05-02T04:14:17.524Z,69.74
2019-05-02T04:16:42.140Z,69.87
2019-05-02T04:19:14.335Z,69.65
2019-05-02T04:21:45.393Z,69.62
2019-05-02T04:24:16.376Z,69.85
2019-05-02T04:26:56.628Z,69.54
2019-05-02T04:29:31.281Z,68.97
2019-05-02T04:32:04.387Z,69.34
2019-05-02T04:34:30.700Z,69.60
2019-05-02T04:37:03.991Z,69.87
2019-05-02T04:39:34.810Z,70.19
2019-05-02T04:42:13.171Z,69.48
2019-05-02T04:44:59.787Z,69.25
2019-05-02T04:47:17.597Z,69.19
2019-05-02T04:49:44.176Z,68.75
2019-05-02T04:52:17.146Z,69.81
2019-05-02T04:54:49.009Z,69.54
2019-05-02T04:57:29.321Z,70.18
2019-05-02T05:00:06.338Z,70.13
2019-05-02T05:02:34.299Z,69.79
2019-05-02T05:05:00.873Z,70.33
2019-05-02T05:07:41.024Z,70.15
2019-05-02T05:10:03.601Z,70.28
2019-05-02T05:12:38.005Z,70.47
2019-05-02T05:15:07.908Z,70.78
2019-05-02T05:17:38.174Z,69.99
2019-05-02T05:20:13.687Z,69.98
2019-05-02T05:22:44.177Z,70.10
2019-05-02T05:25:21.213Z,70.25
2019-05-02T05:27:52.566Z,70.01
2019-05-02T05:30:21.084Z,70.33
2019-05-02T05:32:51.227Z,69.83
2019-05-02T05:35:21.568Z,70.30
2019-05-02T05:37:53.373Z,69.81
2019-05-02T05:40:30.420Z,70.31
2019-05-02T05:43:02.129Z,70.54
2019-05-02T05:45:30.519Z,70.58
2019-05-02T05:48:01.191Z,69.87
2019-05-02T05:50:32.171Z,70.12
2019-05-02T05:53:03.371Z,69.64
2019-05-02T05:55:33.549Z,69.74
2019-05-02T05:58:12.296Z,70.17
2019-05-02T06:00:37.967Z,69.95
2019-05-02T06:03:14.036Z,69.64
2019-05-02T06:05:40.985Z,69.37
2019-05-02T06:08:13.783Z,69.41
2019-05-02T06:10:43.885Z,69.31
2019-05-02T06:13:16.449Z,69.39
2019-05-02T06:15:46.621Z,69.74
2019-05-02T06:18:16.731Z,69.98
2019-05-02T06:20:47.083Z,69.97
2019-05-02T06:23:17.221Z,69.39
2019-05-02T06:25:50.438Z,69.29
2019-05-02T06:28:20.523Z,69.37
2019-05-02T06:30:50.762Z,69.23
2019-05-02T06:33:20.895Z,68.92
2019-05-02T06:35:51.834Z,68.85
2019-05-02T06:38:22.923Z,69.35
2019-05-02T06:40:53.173Z,69.44
2019-05-02T06:43:23.263Z,69.76
2019-05-02T06:45:53.470Z,69.12
2019-05-02T06:48:23.596Z,69.04
2019-05-02T06:50:53.731Z,68.88
2019-05-02T06:53:23.810Z,68.92
2019-05-02T06:55:55.098Z,68.96
2019-05-02T06:58:29.396Z,69.71
2019-05-02T07:01:01.733Z,69.44
2019-05-02T07:03:31.909Z,69.39
2019-05-02T07:06:02.800Z,69.43
2019-05-02T07:08:33.933Z,69.35
2019-05-02T07:11:04.154Z,69.05
2019-05-02T07:13:36.299Z,68.95
2019-05-02T07:16:16.215Z,69.44
2019-05-02T07:18:49.667Z,69.48
2019-05-02T07:21:23.407Z,69.56
2019-05-02T07:23:53.639Z,69.68
2019-05-02T07:26:23.678Z,69.43
2019-05-02T07:28:53.775Z,69.78
2019-05-02T07:31:23.898Z,69.79
2019-05-02T07:33:54.015Z,69.69
2019-05-02T07:36:24.136Z,69.13
2019-05-02T07:38:57.060Z,68.65
2019-05-02T07:41:28.933Z,68.11
2019-05-02T07:43:57.911Z,67.80
2019-05-02T07:46:28.079Z,68.96
2019-05-02T07:48:58.344Z,69.41
2019-05-02T07:51:28.617Z,69.29
2019-05-02T07:53:59.202Z,69.04
2019-05-02T07:56:29.375Z,68.99
2019-05-02T07:58:59.529Z,69.35
2019-05-02T08:01:29.691Z,68.95
2019-05-02T08:04:04.523Z,68.90
2019-05-02T08:06:35.501Z,68.86
2019-05-02T08:09:07.143Z,69.10
2019-05-02T08:11:38.513Z,68.93
2019-05-02T08:14:08.772Z,68.62
2019-05-02T08:16:38.966Z,68.82
2019-05-02T08:19:09.109Z,69.06
2019-05-02T08:21:39.268Z,68.78
2019-05-02T08:24:09.445Z,68.78
2019-05-02T08:26:58.309Z,68.68
2019-05-02T08:29:28.757Z,68.83
2019-05-02T08:32:01.075Z,68.90
2019-05-02T08:34:32.631Z,68.47
2019-05-02T08:37:04.919Z,68.59
2019-05-02T08:39:35.385Z,68.45
2019-05-02T08:42:06.353Z,68.58
2019-05-02T08:44:49.932Z,68.72
2019-05-02T08:47:18.692Z,68.25
2019-05-02T08:49:42.502Z,68.76
2019-05-02T08:52:12.538Z,67.76
2019-05-02T08:54:42.672Z,68.56
2019-05-02T08:57:12.904Z,67.82
2019-05-02T09:00:00.135Z,67.99
2019-05-02T09:02:41.236Z,67.83
2019-05-02T09:05:06.479Z,68.23
2019-05-02T09:07:38.988Z,68.13
2019-05-02T09:10:09.186Z,67.69
2019-05-02T09:12:45.410Z,68.27
2019-05-02T09:15:19.415Z,68.61
2019-05-02T09:17:54.814Z,68.46
2019-05-02T09:20:24.195Z,68.82
2019-05-02T09:22:56.090Z,68.84
2019-05-02T09:25:28.627Z,68.68
2019-05-02T09:28:02.010Z,68.71
2019-05-02T09:30:33.175Z,68.84
2019-05-02T09:33:06.458Z,67.71
2019-05-02T09:35:37.387Z,67.90
2019-05-02T09:38:16.238Z,67.71
2019-05-02T09:40:47.191Z,66.68
2019-05-02T09:43:19.046Z,66.62
2019-05-02T09:45:49.497Z,66.28
2019-05-02T09:48:22.743Z,65.75
2019-05-02T09:50:53.942Z,65.36
2019-05-02T09:53:25.444Z,65.05
2019-05-02T09:56:02.932Z,65.27
2019-05-02T09:58:43.193Z,64.94
2019-05-02T10:01:31.981Z,64.50
2019-05-02T10:04:05.657Z,64.98
2019-05-02T10:06:42.924Z,65.10
2019-05-02T10:09:18.637Z,64.45
2019-05-02T10:11:52.734Z,63.90
2019-05-02T10:14:24.760Z,63.34
2019-05-02T10:17:05.111Z,63.91
2019-05-02T10:19:32.529Z,62.55
2019-05-02T10:22:12.254Z,62.46
2019-05-02T10:24:57.219Z,62.05
2019-05-02T10:27:27.439Z,61.38
2019-05-02T10:30:08.459Z,61.65
2019-05-02T10:32:37.017Z,60.48
2019-05-02T10:35:08.571Z,60.40
2019-05-02T10:37:39.669Z,59.87
2019-05-02T10:40:15.472Z,60.54
2019-05-02T10:42:42.389Z,60.41
2019-05-02T10:45:16.771Z,59.84
2019-05-02T10:47:46.577Z,59.53
2019-05-02T10:50:22.336Z,59.15
2019-05-02T10:52:52.780Z,60.12
2019-05-02T10:55:24.253Z,59.09
2019-05-02T10:57:54.645Z,58.78
2019-05-02T11:00:29.658Z,58.20
2019-05-02T11:03:12.197Z,56.78
2019-05-02T11:05:44.478Z,56.01
2019-05-02T11:08:14.695Z,56.06
2019-05-02T11:10:45.942Z,55.98
2019-05-02T11:13:37.007Z,56.83
2019-05-02T11:16:35.575Z,57.07
2019-05-02T11:19:24.863Z,58.31
2019-05-02T11:21:59.017Z,58.75
2019-05-02T11:24:27.917Z,58.25
2019-05-02T11:26:58.099Z,57.80
2019-05-02T11:29:28.271Z,57.38
2019-05-02T11:31:58.401Z,57.84
2019-05-02T11:34:28.579Z,57.44
2019-05-02T11:36:59.151Z,57.49
2019-05-02T11:39:40.686Z,57.70
2019-05-02T11:42:04.436Z,58.97
2019-05-02T11:44:34.710Z,58.39
2019-05-02T11:47:04.821Z,57.15
2019-05-02T11:49:34.970Z,55.79
2019-05-02T11:52:05.263Z,56.07
2019-05-02T11:54:39.165Z,56.42
2019-05-02T11:57:07.283Z,56.79
2019-05-02T11:59:37.451Z,56.94
2019-05-02T12:02:25.397Z,56.05
2019-05-02T12:04:56.028Z,56.21
2019-05-02T12:07:26.153Z,55.80
2019-05-02T12:09:57.188Z,55.87
2019-05-02T12:12:34.267Z,54.68
2019-05-02T12:14:59.367Z,53.57
2019-05-02T12:17:29.527Z,54.76
2019-05-02T12:20:05.698Z,56.20
2019-05-02T12:22:42.453Z,54.42
2019-05-02T12:25:25.435Z,54.54
2019-05-02T12:28:11.979Z,53.48
2019-05-02T12:30:52.840Z,52.63
2019-05-02T12:33:42.989Z,52.19
2019-05-02T12:36:16.871Z,52.96
2019-05-02T12:38:52.963Z,53.42
2019-05-02T12:41:29.587Z,53.69
2019-05-02T12:44:11.751Z,53.78
2019-05-02T12:46:45.481Z,53.10
2019-05-02T12:49:25.307Z,52.44
2019-05-02T12:52:01.897Z,51.80
2019-05-02T12:54:34.964Z,52.01
2019-05-02T12:57:12.515Z,52.51
2019-05-02T12:59:44.119Z,53.22
2019-05-02T13:02:27.029Z,53.95
2019-05-02T13:04:57.433Z,54.32
2019-05-02T13:07:31.738Z,54.67
2019-05-02T13:10:22.009Z,55.79
2019-05-02T13:13:02.808Z,55.30
2019-05-02T13:15:38.194Z,54.99
2019-05-02T13:18:12.509Z,55.01
2019-05-02T13:20:48.949Z,54.54
2019-05-02T13:23:40.087Z,54.68
2019-05-02T13:26:21.795Z,54.46
2019-05-02T13:28:52.690Z,54.80
2019-05-02T13:31:49.565Z,54.27
2019-05-02T13:34:54.089Z,53.74
2019-05-02T13:37:44.149Z,53.67
2019-05-02T13:40:29.236Z,53.37
2019-05-02T13:43:05.410Z,54.27
2019-05-02T13:46:07.600Z,55.24
2019-05-02T13:48:37.776Z,55.73
2019-05-02T13:51:07.957Z,55.93
2019-05-02T13:56:52.771Z,57.53
2019-05-02T13:59:23.822Z,58.55
2019-05-02T14:01:55.932Z,59.51
2019-05-02T14:04:26.317Z,62.32
2019-05-02T14:07:00.038Z,65.92
2019-05-02T14:09:58.330Z,69.39
2019-05-02T14:12:47.226Z,72.52
2019-05-02T14:15:22.133Z,71.67
2019-05-02T14:17:54.286Z,73.60
2019-05-02T14:20:25.631Z,74.49
2019-05-02T14:22:56.040Z,73.58
2019-05-02T14:25:35.084Z,73.43
2019-05-02T14:28:15.899Z,73.56
2019-05-02T14:30:54.519Z,72.80
2019-05-02T14:33:27.109Z,72.44
2019-05-02T14:35:57.657Z,73.19
2019-05-02T14:38:29.042Z,72.95
2019-05-02T14:41:12.445Z,73.48
2019-05-02T14:43:56.484Z,73.70
2019-05-02T14:46:37.569Z,72.70
2019-05-02T14:49:04.979Z,71.47
2019-05-02T14:51:36.777Z,71.35
2019-05-02T14:54:08.664Z,71.54
2019-05-02T14:57:11.779Z,70.50
2019-05-02T14:59:42.870Z,70.18
2019-05-02T15:02:39.230Z,69.69
2019-05-02T15:05:09.638Z,69.11
2019-05-02T15:07:39.913Z,68.55
2019-05-02T15:10:12.513Z,68.27
2019-05-02T15:12:51.707Z,68.41
2019-05-02T15:15:23.095Z,68.42
2019-05-02T15:17:53.555Z,67.97
2019-05-02T15:20:36.552Z,67.37
2019-05-02T15:22:56.715Z,66.78
2019-05-02T15:25:28.429Z,66.23
2019-05-02T15:28:02.022Z,66.44
2019-05-02T15:30:30.997Z,67.10
2019-05-02T15:33:12.563Z,67.61
2019-05-02T15:36:03.189Z,67.48
2019-05-02T15:38:37.161Z,68.03
2019-05-02T15:41:09.505Z,68.31
2019-05-02T15:43:39.367Z,68.32
2019-05-02T15:46:09.678Z,68.64
2019-05-02T15:48:42.169Z,68.98
2019-05-02T15:51:15.344Z,70.51
2019-05-02T15:54:08.091Z,70.65
2019-05-02T15:56:52.264Z,70.45
2019-05-02T15:59:37.720Z,69.43
2019-05-02T16:02:17.563Z,69.06
2019-05-02T16:04:46.220Z,68.54
2019-05-02T16:07:20.084Z,68.48
2019-05-02T16:09:51.521Z,67.81
2019-05-02T16:12:22.374Z,67.70
2019-05-02T16:14:52.811Z,67.83
2019-05-02T16:17:29.531Z,68.52
2019-05-02T16:20:10.389Z,68.95
2019-05-02T16:22:46.320Z,69.11
2019-05-02T16:25:12.208Z,68.90
2019-05-02T16:27:47.977Z,68.63
2019-05-02T16:30:22.363Z,68.61
2019-05-02T16:33:02.827Z,68.82
2019-05-02T16:35:34.570Z,68.97
2019-05-02T16:38:04.964Z,68.93
2019-05-02T16:40:35.338Z,68.98
2019-05-02T16:43:12.159Z,68.84
2019-05-02T16:45:43.969Z,68.96
2019-05-02T16:48:17.241Z,68.95
2019-05-02T16:50:48.415Z,69.16
2019-05-02T16:53:22.654Z,69.40
2019-05-02T16:55:51.835Z,69.79
2019-05-02T16:58:23.305Z,69.50
2019-05-02T17:00:55.118Z,69.02
2019-05-02T17:03:26.601Z,68.96
2019-05-02T17:05:57.352Z,69.14
2019-05-02T17:08:58.503Z,68.54
2019-05-02T17:11:35.944Z,68.57
2019-05-02T17:14:11.598Z,67.59
2019-05-02T17:16:38.740Z,65.98
2019-05-02T17:19:09.168Z,66.17
2019-05-02T17:21:53.116Z,66.25
2019-05-02T17:24:17.310Z,66.85
2019-05-02T17:26:47.286Z,66.84
2019-05-02T17:29:21.456Z,66.65
2019-05-02T17:31:50.099Z,67.17
2019-05-02T17:34:30.067Z,67.77
2019-05-02T17:36:59.098Z,68.77
2019-05-02T17:39:30.528Z,69.21
2019-05-02T17:42:02.766Z,69.14
2019-05-02T17:44:35.216Z,69.05
2019-05-02T17:47:06.916Z,69.47
2019-05-02T17:49:39.254Z,69.48
2019-05-02T17:52:26.033Z,69.56
2019-05-02T17:54:52.843Z,70.59
2019-05-02T17:57:28.559Z,70.00
2019-05-02T17:59:58.279Z,70.63
2019-05-02T18:02:34.089Z,70.23
2019-05-02T18:05:05.588Z,70.81
2019-05-02T18:07:36.282Z,70.87
2019-05-02T18:10:14.300Z,71.38
2019-05-02T18:12:39.492Z,71.68
2019-05-02T18:15:13.411Z,71.83
2019-05-02T18:17:46.041Z,71.35
2019-05-02T18:20:16.092Z,71.57
2019-05-02T18:22:48.921Z,71.43
2019-05-02T18:25:21.638Z,72.00
2019-05-02T18:27:51.841Z,72.56
2019-05-02T18:30:26.866Z,72.61
2019-05-02T18:32:57.735Z,72.92
2019-05-02T18:35:43.032Z,72.82
2019-05-02T18:38:10.583Z,73.06
2019-05-02T18:40:42.562Z,73.14
2019-05-02T18:43:14.110Z,74.19
2019-05-02T18:45:46.503Z,75.38
2019-05-02T18:48:21.784Z,71.43
2019-05-02T18:50:52.673Z,69.58
2019-05-02T18:53:26.996Z,71.40
2019-05-02T18:55:56.843Z,73.12
2019-05-02T18:58:31.910Z,74.16
2019-05-02T19:01:03.529Z,74.51
2019-05-02T19:03:37.041Z,74.58
2019-05-02T19:06:07.834Z,76.66
2019-05-02T19:08:46.766Z,76.49
2019-05-02T19:11:17.571Z,77.72
2019-05-02T19:13:52.718Z,78.49
2019-05-02T19:16:28.569Z,78.35
2019-05-02T19:18:58.325Z,79.27
2019-05-02T19:21:36.763Z,79.36
2019-05-02T19:24:04.914Z,79.12
2019-05-02T19:26:35.567Z,79.30
2019-05-02T19:29:14.101Z,78.90
2019-05-02T19:31:52.322Z,78.67
2019-05-02T19:34:26.633Z,79.50
2019-05-02T19:36:57.815Z,80.22
2019-05-02T19:39:29.647Z,78.94
2019-05-02T19:42:01.736Z,79.70
2019-05-02T19:44:37.458Z,80.35
2019-05-02T19:47:12.526Z,79.99
2019-05-02T19:49:42.381Z,79.94
2019-05-02T19:52:12.842Z,78.98
2019-05-02T19:54:43.786Z,78.99
2019-05-02T19:57:17.144Z,80.37
2019-05-02T19:59:47.579Z,79.64
2019-05-02T20:02:17.952Z,79.55
2019-05-02T20:04:48.515Z,79.35
2019-05-02T20:07:18.966Z,79.23
2019-05-02T20:09:49.595Z,78.99
2019-05-02T20:12:21.888Z,78.98
2019-05-02T20:14:52.135Z,78.16
2019-05-02T20:17:24.052Z,78.73
2019-05-02T20:19:57.869Z,78.51
2019-05-02T20:22:31.642Z,78.16
2019-05-02T20:25:04.040Z,77.31
2019-05-02T20:27:37.615Z,77.41
2019-05-02T20:30:08.493Z,77.31
2019-05-02T20:32:39.065Z,76.51
2019-05-02T20:35:13.572Z,75.14
2019-05-02T20:37:44.048Z,74.21
2019-05-02T20:40:31.687Z,74.65
2019-05-02T20:43:02.622Z,74.45
2019-05-02T20:45:35.427Z,74.19
2019-05-02T20:48:06.130Z,74.06
2019-05-02T20:50:44.402Z,73.91
2019-05-02T20:53:14.956Z,74.41
2019-05-02T20:55:45.576Z,74.06
2019-05-02T20:58:15.982Z,74.86
2019-05-02T21:00:46.812Z,73.45
2019-05-02T21:03:17.538Z,73.16
2019-05-02T21:06:13.031Z,73.48
2019-05-02T21:08:56.298Z,72.99
2019-05-02T21:11:27.267Z,72.95
2019-05-02T21:13:57.723Z,73.45
2019-05-02T21:16:28.578Z,72.27
2019-05-02T21:18:59.142Z,71.46
2019-05-02T21:21:29.962Z,71.05
2019-05-02T21:24:02.192Z,70.80
2019-05-02T21:26:32.961Z,70.93
2019-05-02T21:29:07.713Z,70.80
2019-05-02T21:31:37.971Z,70.68
2019-05-02T21:34:08.091Z,70.55
2019-05-02T21:36:38.460Z,70.01
2019-05-02T21:39:12.180Z,70.09
2019-05-02T21:41:43.473Z,70.16
2019-05-02T21:44:16.723Z,70.77
2019-05-02T21:46:47.032Z,69.81
2019-05-02T21:49:43.428Z,70.75
2019-05-02T21:52:32.861Z,70.24
2019-05-02T21:55:14.330Z,70.80
2019-05-02T21:57:44.658Z,70.47
2019-05-02T22:00:42.180Z,70.66
2019-05-02T22:03:12.750Z,70.60
2019-05-02T22:05:43.262Z,71.31
2019-05-02T22:08:13.809Z,70.91
2019-05-02T22:10:47.283Z,70.70
2019-05-02T22:13:19.271Z,70.27
2019-05-02T22:15:51.614Z,70.21
2019-05-02T22:18:24.474Z,70.78
2019-05-02T22:20:56.585Z,70.52
2019-05-02T22:23:27.184Z,70.26
2019-05-02T22:25:59.599Z,70.57
2019-05-02T22:28:29.907Z,70.15
2019-05-02T22:31:06.951Z,70.52
2019-05-02T22:33:37.603Z,70.48
2019-05-02T22:36:12.384Z,70.51
2019-05-02T22:38:54.355Z,70.40
2019-05-02T22:41:24.861Z,71.00
2019-05-02T22:43:55.285Z,70.62
2019-05-02T22:46:45.413Z,70.87
2019-05-02T22:49:16.423Z,70.64
2019-05-02T22:51:46.938Z,70.67
2019-05-02T22:54:26.785Z,70.61
2019-05-02T22:56:49.553Z,70.42
2019-05-02T22:59:23.716Z,70.53
2019-05-02T23:01:52.879Z,70.88
2019-05-02T23:04:23.560Z,71.47
2019-05-02T23:06:54.948Z,71.81
2019-05-02T23:09:25.380Z,71.55
2019-05-02T23:11:55.642Z,72.15
2019-05-02T23:14:28.203Z,71.73
2019-05-02T23:16:58.349Z,71.69
2019-05-02T23:19:28.483Z,71.96
2019-05-02T23:21:59.033Z,72.20
2019-05-02T23:24:44.296Z,72.47
2019-05-02T23:27:23.903Z,73.02
2019-05-02T23:29:55.353Z,72.17
2019-05-02T23:32:26.861Z,72.38
2019-05-02T23:34:57.090Z,72.63
2019-05-02T23:37:27.402Z,72.94
2019-05-02T23:39:57.841Z,72.78
2019-05-02T23:42:28.553Z,72.54
2019-05-02T23:44:59.799Z,73.20
2019-05-02T23:47:30.081Z,73.62
2019-05-02T23:50:00.425Z,73.69
2019-05-02T23:52:31.598Z,73.62
2019-05-02T23:55:03.112Z,74.17
2019-05-02T23:57:34.411Z,73.42
